createdAt,value
2023-04-21T00:01:55.410Z,26.70
2023-04-21T00:04:24.035Z,20.50
2023-04-21T00:06:53.345Z,22.50
2023-04-21T00:09:22.508Z,20.00
2023-04-21T00:11:50.862Z,20.20
2023-04-21T00:14:19.238Z,26.30
2023-04-21T00:16:47.477Z,14.90
2023-04-21T00:19:15.809Z,21.30
2023-04-21T00:21:43.906Z,25.70
2023-04-21T00:24:12.368Z,20.40
2023-04-21T00:26:40.595Z,24.80
2023-04-21T00:29:08.934Z,25.60
2023-04-21T00:31:37.164Z,18.00
2023-04-21T00:34:06.456Z,27.30
2023-04-21T00:36:34.651Z,20.50
2023-04-21T00:39:02.904Z,26.50
2023-04-21T00:41:31.139Z,21.20
2023-04-21T00:44:07.133Z,20.80
2023-04-21T00:46:35.910Z,25.30
2023-04-21T00:49:05.738Z,18.90
2023-04-21T00:51:34.783Z,24.30
2023-04-21T00:54:04.485Z,23.10
2023-04-21T00:56:34.058Z,16.90
2023-04-21T00:59:03.428Z,16.40
2023-04-21T01:01:32.677Z,20.40
2023-04-21T01:04:01.786Z,20.00
2023-04-21T01:06:32.413Z,19.90
2023-04-21T01:09:00.995Z,21.80
2023-04-21T01:11:29.555Z,21.30
2023-04-21T01:13:57.962Z,20.20
2023-04-21T01:16:26.989Z,21.40
2023-04-21T01:18:55.635Z,24.00
2023-04-21T01:21:24.018Z,22.10
2023-04-21T01:23:52.229Z,20.00
2023-04-21T01:26:22.103Z,20.30
2023-04-21T01:28:50.600Z,21.80
2023-04-21T01:31:18.974Z,16.10
2023-04-21T01:33:47.344Z,21.20
2023-04-21T01:36:17.845Z,17.00
2023-04-21T01:38:46.277Z,15.80
2023-04-21T01:41:14.722Z,22.40
2023-04-21T01:43:42.922Z,17.80
2023-04-21T01:46:11.554Z,14.80
2023-04-21T01:48:39.875Z,22.90
2023-04-21T01:51:08.443Z,20.00
2023-04-21T01:53:36.619Z,35.30
2023-04-21T01:56:05.219Z,36.40
2023-04-21T01:58:33.722Z,37.70
2023-04-21T02:01:02.173Z,39.70
2023-04-21T02:03:30.639Z,33.20
2023-04-21T02:05:59.366Z,31.30
2023-04-21T02:08:27.607Z,32.30
2023-04-21T02:10:55.743Z,35.40
2023-04-21T02:13:24.557Z,26.70
2023-04-21T02:16:02.460Z,22.20
2023-04-21T02:18:40.220Z,20.70
2023-04-21T02:21:08.774Z,17.30
2023-04-21T02:23:37.300Z,24.40
2023-04-21T02:26:06.351Z,31.10
2023-04-21T02:28:36.160Z,36.00
2023-04-21T02:31:04.490Z,36.40
2023-04-21T02:33:36.157Z,57.60
2023-04-21T02:36:05.006Z,49.50
2023-04-21T02:38:33.370Z,51.30
2023-04-21T02:41:01.627Z,49.20
2023-04-21T02:43:29.879Z,44.30
2023-04-21T02:45:57.942Z,26.10
2023-04-21T02:48:26.947Z,25.90
2023-04-21T02:50:55.278Z,20.90
2023-04-21T02:53:23.488Z,27.50
2023-04-21T02:55:52.500Z,16.50
2023-04-21T02:58:21.103Z,23.70
2023-04-21T03:00:49.430Z,40.20
2023-04-21T03:03:17.950Z,42.60
2023-04-21T03:05:46.277Z,61.10
2023-04-21T03:08:14.679Z,41.30
2023-04-21T03:10:42.778Z,37.50
2023-04-21T03:13:11.081Z,34.30
2023-04-21T03:15:39.344Z,29.30
2023-04-21T03:18:07.474Z,28.40
2023-04-21T03:20:35.759Z,19.40
2023-04-21T03:23:04.259Z,28.80
2023-04-21T03:25:32.946Z,28.30
2023-04-21T03:28:01.320Z,25.10
2023-04-21T03:30:29.872Z,20.20
2023-04-21T03:32:58.976Z,24.40
2023-04-21T03:35:27.636Z,29.00
2023-04-21T03:37:56.037Z,23.80
2023-04-21T03:40:24.408Z,26.40
2023-04-21T03:42:52.554Z,28.70
2023-04-21T03:45:22.812Z,32.60
2023-04-21T03:47:55.274Z,29.80
2023-04-21T03:50:24.113Z,33.80
2023-04-21T03:52:52.416Z,29.30
2023-04-21T03:55:20.641Z,24.50
2023-04-21T03:57:49.362Z,30.90
2023-04-21T04:00:17.663Z,20.50
2023-04-21T04:02:46.876Z,21.90
2023-04-21T04:05:16.184Z,29.40
2023-04-21T04:07:44.855Z,27.30
2023-04-21T04:10:13.126Z,22.70
2023-04-21T04:12:41.907Z,27.60
2023-04-21T04:15:10.186Z,24.90
2023-04-21T04:17:38.808Z,24.20
2023-04-21T04:20:08.663Z,22.10
2023-04-21T04:22:37.269Z,26.10
2023-04-21T04:25:05.956Z,25.50
2023-04-21T04:27:34.626Z,26.40
2023-04-21T04:30:03.370Z,31.00
2023-04-21T04:32:33.560Z,23.70
2023-04-21T04:35:02.660Z,20.10
2023-04-21T04:37:31.821Z,20.70
2023-04-21T04:40:00.205Z,21.90
2023-04-21T04:42:29.127Z,16.40
2023-04-21T04:44:57.361Z,19.30
2023-04-21T04:47:25.545Z,23.80
2023-04-21T04:49:54.145Z,20.50
2023-04-21T04:52:22.727Z,20.20
2023-04-21T04:54:50.775Z,16.00
2023-04-21T04:57:19.389Z,23.40
2023-04-21T04:59:47.490Z,19.60
2023-04-21T05:02:16.541Z,21.60
2023-04-21T05:04:45.228Z,21.10
2023-04-21T05:07:13.547Z,19.10
2023-04-21T05:09:41.792Z,21.20
2023-04-21T05:12:10.349Z,21.30
2023-04-21T05:14:38.536Z,27.20
2023-04-21T05:17:06.664Z,20.50
2023-04-21T05:19:38.122Z,20.40
2023-04-21T05:22:09.159Z,16.90
2023-04-21T05:24:37.871Z,21.50
2023-04-21T05:27:05.986Z,20.80
2023-04-21T05:29:34.433Z,24.70
2023-04-21T05:32:02.894Z,18.40
2023-04-21T05:34:31.179Z,22.00
2023-04-21T05:36:59.261Z,20.50
2023-04-21T05:39:28.384Z,23.40
2023-04-21T05:41:56.513Z,27.30
2023-04-21T05:44:25.513Z,20.20
2023-04-21T05:46:53.900Z,20.80
2023-04-21T05:49:22.426Z,18.10
2023-04-21T05:51:50.622Z,19.40
2023-04-21T05:54:19.718Z,17.30
2023-04-21T05:56:48.555Z,18.90
2023-04-21T05:59:16.817Z,22.70
2023-04-21T06:01:45.203Z,25.20
2023-04-21T06:04:13.879Z,20.50
2023-04-21T06:06:42.698Z,21.10
2023-04-21T06:09:11.085Z,21.90
2023-04-21T06:11:39.338Z,20.40
2023-04-21T06:14:07.538Z,19.90
2023-04-21T06:16:36.398Z,17.00
2023-04-21T06:19:04.509Z,17.30
2023-04-21T06:21:33.298Z,17.20
2023-04-21T06:24:01.673Z,16.20
2023-04-21T06:26:30.397Z,18.40
2023-04-21T06:28:58.566Z,26.90
2023-04-21T06:31:27.302Z,20.50
2023-04-21T06:33:55.341Z,17.20
2023-04-21T06:36:23.497Z,20.50
2023-04-21T06:38:51.989Z,20.70
2023-04-21T06:41:20.049Z,14.00
2023-04-21T06:43:48.297Z,16.90
2023-04-21T06:46:16.669Z,29.40
2023-04-21T06:48:44.893Z,21.10
2023-04-21T06:51:13.087Z,18.30
2023-04-21T06:53:41.333Z,21.10
2023-04-21T06:56:09.460Z,16.40
2023-04-21T06:58:37.554Z,23.70
2023-04-21T07:01:06.254Z,18.50
2023-04-21T07:03:34.831Z,19.70
2023-04-21T07:06:03.249Z,23.40
2023-04-21T07:08:31.567Z,15.40
2023-04-21T07:10:59.979Z,27.30
2023-04-21T07:13:28.214Z,22.70
2023-04-21T07:15:56.563Z,20.10
2023-04-21T07:18:24.689Z,17.00
2023-04-21T07:20:52.986Z,19.70
2023-04-21T07:23:21.274Z,17.70
2023-04-21T07:28:28.902Z,24.50
2023-04-21T07:30:57.113Z,18.30
2023-04-21T07:33:25.409Z,16.20
2023-04-21T07:35:53.750Z,14.20
2023-04-21T07:38:22.042Z,21.30
2023-04-21T07:40:50.236Z,17.30
2023-04-21T07:43:20.090Z,16.10
2023-04-21T07:45:48.397Z,21.60
2023-04-21T07:48:16.970Z,19.30
2023-04-21T07:50:45.383Z,24.00
2023-04-21T07:53:13.635Z,20.30
2023-04-21T07:55:41.739Z,19.80
2023-04-21T07:58:10.662Z,24.10
2023-04-21T08:00:39.074Z,20.30
2023-04-21T08:03:07.395Z,19.00
2023-04-21T08:05:40.184Z,21.00
2023-04-21T08:08:09.485Z,15.30
2023-04-21T08:10:37.807Z,17.70
2023-04-21T08:13:06.571Z,18.30
2023-04-21T08:15:35.137Z,17.10
2023-04-21T08:18:03.418Z,15.90
2023-04-21T08:20:31.725Z,24.60
2023-04-21T08:23:00.113Z,15.40
2023-04-21T08:25:28.370Z,21.40
2023-04-21T08:27:56.716Z,18.70
2023-04-21T08:30:27.014Z,12.80
2023-04-21T08:32:55.557Z,18.40
2023-04-21T08:35:24.434Z,17.00
2023-04-21T08:37:53.574Z,17.40
2023-04-21T08:40:24.135Z,16.90
2023-04-21T08:42:52.299Z,14.20
2023-04-21T08:45:20.769Z,16.40
2023-04-21T08:47:49.426Z,21.60
2023-04-21T08:50:17.606Z,28.80
2023-04-21T08:52:45.910Z,20.60
2023-04-21T08:55:14.236Z,14.60
2023-04-21T08:57:42.475Z,17.70
2023-04-21T09:00:11.246Z,18.00
2023-04-21T09:03:01.460Z,18.20
2023-04-21T09:05:32.759Z,12.50
2023-04-21T09:08:14.823Z,16.50
2023-04-21T09:10:46.883Z,20.70
2023-04-21T09:13:15.405Z,17.50
2023-04-21T09:15:47.929Z,17.80
2023-04-21T09:18:21.354Z,15.20
2023-04-21T09:20:51.639Z,21.20
2023-04-21T09:23:21.268Z,16.60
2023-04-21T09:25:49.467Z,17.30
2023-04-21T09:28:17.666Z,14.80
2023-04-21T09:30:45.842Z,14.60
2023-04-21T09:33:28.901Z,18.90
2023-04-21T09:36:01.004Z,27.20
2023-04-21T09:38:29.591Z,14.60
2023-04-21T09:40:59.985Z,15.20
2023-04-21T09:43:28.199Z,13.80
2023-04-21T09:45:56.343Z,18.40
2023-04-21T09:48:27.512Z,14.00
2023-04-21T09:53:27.453Z,16.10
2023-04-21T09:55:56.997Z,15.00
2023-04-21T09:58:25.651Z,17.90
2023-04-21T10:00:53.948Z,13.40
2023-04-21T10:03:22.402Z,12.20
2023-04-21T10:05:50.815Z,17.60
2023-04-21T10:08:18.972Z,15.00
2023-04-21T10:10:47.916Z,13.70
2023-04-21T10:13:18.750Z,18.00
2023-04-21T10:15:46.933Z,16.20
2023-04-21T10:18:19.977Z,12.80
2023-04-21T10:21:11.020Z,15.30
2023-04-21T10:23:43.576Z,12.50
2023-04-21T10:26:19.025Z,13.40
2023-04-21T10:28:56.757Z,15.90
2023-04-21T10:31:34.729Z,15.20
2023-04-21T10:34:09.198Z,14.70
2023-04-21T10:36:46.986Z,14.70
2023-04-21T10:39:36.618Z,10.10
2023-04-21T10:42:13.898Z,14.80
2023-04-21T10:44:53.191Z,11.30
2023-04-21T10:47:28.397Z,14.40
2023-04-21T10:49:58.176Z,17.40
2023-04-21T10:52:33.679Z,14.20
2023-04-21T10:55:01.850Z,14.90
2023-04-21T10:57:34.595Z,18.00
2023-04-21T11:00:06.438Z,13.60
2023-04-21T11:02:39.486Z,18.70
2023-04-21T11:05:10.287Z,12.60
2023-04-21T11:07:39.130Z,14.50
2023-04-21T11:10:08.108Z,14.60
2023-04-21T11:12:39.562Z,11.60
2023-04-21T11:15:09.347Z,13.30
2023-04-21T11:17:43.625Z,13.10
2023-04-21T11:20:12.171Z,12.80
2023-04-21T11:22:40.458Z,10.20
2023-04-21T11:25:17.309Z,13.50
2023-04-21T11:27:54.136Z,18.90
2023-04-21T11:30:32.019Z,11.80
2023-04-21T11:33:00.412Z,16.00
2023-04-21T11:35:28.554Z,10.10
2023-04-21T11:37:57.160Z,11.40
2023-04-21T11:40:25.266Z,10.10
2023-04-21T11:42:53.872Z,13.00
2023-04-21T11:45:22.826Z,16.50
2023-04-21T11:47:51.301Z,9.50
2023-04-21T11:50:32.064Z,15.50
2023-04-21T11:53:02.626Z,20.40
2023-04-21T11:55:30.799Z,14.40
2023-04-21T11:57:58.994Z,11.60
2023-04-21T12:00:30.892Z,13.00
2023-04-21T12:02:59.172Z,18.80
2023-04-21T12:05:34.883Z,14.80
2023-04-21T12:08:05.275Z,15.30
2023-04-21T12:10:34.095Z,17.30
2023-04-21T12:13:02.245Z,13.00
2023-04-21T12:15:30.593Z,13.80
2023-04-21T12:17:58.898Z,11.10
2023-04-21T12:20:29.316Z,11.00
2023-04-21T12:22:57.651Z,16.30
2023-04-21T12:25:26.206Z,11.60
2023-04-21T12:27:58.772Z,16.60
2023-04-21T12:30:27.077Z,17.80
2023-04-21T12:32:55.856Z,17.20
2023-04-21T12:35:24.246Z,24.70
2023-04-21T12:37:52.657Z,19.70
2023-04-21T12:40:21.224Z,18.80
2023-04-21T12:42:49.604Z,15.40
2023-04-21T12:45:17.971Z,15.10
2023-04-21T12:47:47.073Z,19.90
2023-04-21T12:50:16.272Z,10.70
2023-04-21T12:52:44.457Z,12.10
2023-04-21T12:55:13.493Z,13.80
2023-04-21T12:57:41.989Z,12.10
2023-04-21T13:00:12.374Z,16.70
2023-04-21T13:02:41.864Z,15.90
2023-04-21T13:05:12.134Z,12.70
2023-04-21T13:07:41.485Z,16.30
2023-04-21T13:10:10.190Z,16.10
2023-04-21T13:12:41.621Z,18.60
2023-04-21T13:15:10.858Z,16.20
2023-04-21T13:17:39.687Z,15.60
2023-04-21T13:20:08.426Z,20.90
2023-04-21T13:22:36.797Z,17.90
2023-04-21T13:25:05.512Z,14.00
2023-04-21T13:27:35.098Z,16.70
2023-04-21T13:30:03.638Z,14.00
2023-04-21T13:32:32.484Z,21.50
2023-04-21T13:35:00.867Z,19.50
2023-04-21T13:37:28.989Z,16.20
2023-04-21T13:39:57.239Z,14.30
2023-04-21T13:42:25.701Z,14.30
2023-04-21T13:44:53.918Z,13.80
2023-04-21T13:47:22.109Z,16.20
2023-04-21T13:49:51.695Z,14.00
2023-04-21T13:52:19.845Z,19.00
2023-04-21T13:54:48.156Z,16.40
2023-04-21T13:57:16.482Z,15.50
2023-04-21T13:59:44.588Z,15.70
2023-04-21T14:02:13.060Z,14.20
2023-04-21T14:04:41.943Z,15.10
2023-04-21T14:07:10.579Z,18.50
2023-04-21T14:09:38.851Z,14.20
2023-04-21T14:12:07.365Z,18.20
2023-04-21T14:14:38.797Z,16.90
2023-04-21T14:17:07.854Z,16.70
2023-04-21T14:19:36.759Z,17.30
2023-04-21T14:22:05.132Z,14.70
2023-04-21T14:24:34.889Z,12.80
2023-04-21T14:27:03.127Z,15.50
2023-04-21T14:29:32.773Z,13.80
2023-04-21T14:32:27.556Z,16.80
2023-04-21T14:34:58.821Z,12.40
2023-04-21T14:37:27.498Z,12.30
2023-04-21T14:39:55.600Z,52.90
2023-04-21T14:42:23.899Z,18.40
2023-04-21T14:44:52.405Z,15.70
2023-04-21T14:47:21.632Z,16.70
2023-04-21T14:49:55.219Z,14.30
2023-04-21T14:52:27.273Z,18.00
2023-04-21T14:54:55.788Z,21.20
2023-04-21T14:57:24.242Z,16.20
2023-04-21T14:59:53.084Z,8.90
2023-04-21T15:02:22.346Z,18.00
2023-04-21T15:04:50.948Z,17.20
2023-04-21T15:07:23.851Z,17.70
2023-04-21T15:09:55.682Z,16.80
2023-04-21T15:12:24.085Z,18.00
2023-04-21T15:14:52.412Z,15.70
2023-04-21T15:17:20.816Z,15.50
2023-04-21T15:19:49.123Z,11.10
2023-04-21T15:22:17.349Z,22.60
2023-04-21T15:24:46.232Z,14.00
2023-04-21T15:27:14.374Z,18.10
2023-04-21T15:29:42.656Z,19.70
2023-04-21T15:32:11.125Z,17.10
2023-04-21T15:34:39.689Z,13.60
2023-04-21T15:37:08.015Z,15.00
2023-04-21T15:39:36.831Z,15.20
2023-04-21T15:42:05.512Z,26.40
2023-04-21T15:44:34.415Z,22.30
2023-04-21T15:47:03.240Z,17.40
2023-04-21T15:49:31.636Z,20.20
2023-04-21T15:52:00.113Z,18.30
2023-04-21T15:54:28.652Z,18.00
2023-04-21T15:56:57.725Z,24.40
2023-04-21T15:59:26.444Z,26.20
2023-04-21T16:01:57.073Z,22.60
2023-04-21T16:04:25.624Z,16.00
2023-04-21T16:06:54.058Z,19.00
2023-04-21T16:09:22.673Z,17.30
2023-04-21T16:11:51.548Z,39.80
2023-04-21T16:14:20.142Z,33.90
2023-04-21T16:16:48.650Z,34.40
2023-04-21T16:19:17.710Z,21.20
2023-04-21T16:21:46.061Z,21.30
2023-04-21T16:24:15.132Z,20.60
2023-04-21T16:26:43.450Z,25.80
2023-04-21T16:29:11.877Z,17.90
2023-04-21T16:31:40.581Z,17.00
2023-04-21T16:34:08.845Z,14.90
2023-04-21T16:36:37.154Z,16.20
2023-04-21T16:39:06.078Z,10.50
2023-04-21T16:41:34.929Z,14.50
2023-04-21T16:44:03.136Z,23.20
2023-04-21T16:46:31.948Z,20.20
2023-04-21T16:49:00.366Z,25.50
2023-04-21T16:51:28.787Z,28.30
2023-04-21T16:53:57.217Z,28.30
2023-04-21T16:56:25.643Z,37.40
2023-04-21T16:58:53.833Z,32.70
2023-04-21T17:01:22.334Z,21.60
2023-04-21T17:03:51.128Z,19.90
2023-04-21T17:06:21.344Z,25.80
2023-04-21T17:08:49.919Z,25.00
2023-04-21T17:11:18.158Z,21.20
2023-04-21T17:13:46.680Z,24.40
2023-04-21T17:16:15.142Z,22.40
2023-04-21T17:18:43.526Z,22.30
2023-04-21T17:21:13.629Z,23.80
2023-04-21T17:23:42.061Z,32.70
2023-04-21T17:26:12.410Z,20.30
2023-04-21T17:28:41.512Z,18.00
2023-04-21T17:31:15.631Z,20.90
2023-04-21T17:33:45.243Z,24.60
2023-04-21T17:36:13.855Z,17.10
2023-04-21T17:38:43.179Z,14.10
2023-04-21T17:41:12.626Z,17.50
2023-04-21T17:43:40.920Z,19.70
2023-04-21T17:46:09.175Z,16.20
2023-04-21T17:48:38.977Z,18.50
2023-04-21T17:51:07.226Z,18.90
2023-04-21T17:53:36.240Z,27.50
2023-04-21T17:56:05.726Z,55.60
2023-04-21T17:58:35.390Z,50.50
2023-04-21T18:01:04.820Z,68.70
2023-04-21T18:03:36.945Z,50.30
2023-04-21T18:06:05.535Z,52.60
2023-04-21T18:08:34.288Z,47.10
2023-04-21T18:11:02.476Z,40.60
2023-04-21T18:13:31.592Z,38.70
2023-04-21T18:15:59.888Z,33.70
2023-04-21T18:18:28.517Z,25.30
2023-04-21T18:20:56.723Z,30.50
2023-04-21T18:23:26.850Z,32.50
2023-04-21T18:25:55.188Z,18.50
2023-04-21T18:28:23.497Z,20.00
2023-04-21T18:30:53.841Z,18.80
2023-04-21T18:33:22.041Z,19.20
2023-04-21T18:35:52.824Z,27.90
2023-04-21T18:38:21.002Z,28.20
2023-04-21T18:40:49.156Z,22.70
2023-04-21T18:43:17.497Z,24.70
2023-04-21T18:45:46.684Z,20.30
2023-04-21T18:48:15.011Z,26.10
2023-04-21T18:50:44.338Z,26.50
2023-04-21T18:53:12.407Z,20.80
2023-04-21T18:55:40.756Z,28.00
2023-04-21T18:58:09.988Z,21.40
2023-04-21T19:00:39.322Z,23.60
2023-04-21T19:03:07.836Z,26.10
2023-04-21T19:05:37.078Z,21.90
2023-04-21T19:08:06.009Z,23.20
2023-04-21T19:10:37.539Z,23.80
2023-04-21T19:13:05.944Z,24.40
2023-04-21T19:15:35.087Z,25.60
2023-04-21T19:18:03.797Z,20.80
2023-04-21T19:20:33.617Z,23.20
2023-04-21T19:23:01.881Z,21.10
2023-04-21T19:25:30.898Z,25.40
2023-04-21T19:27:59.198Z,22.10
2023-04-21T19:30:27.682Z,24.30
2023-04-21T19:32:55.925Z,23.70
2023-04-21T19:35:24.309Z,17.60
2023-04-21T19:37:52.773Z,22.80
2023-04-21T19:40:21.024Z,20.00
2023-04-21T19:44:59.033Z,19.20
2023-04-21T19:47:27.620Z,24.50
2023-04-21T19:49:55.841Z,20.00
2023-04-21T19:52:25.084Z,20.40
2023-04-21T19:54:53.562Z,22.20
2023-04-21T19:57:21.720Z,25.70
2023-04-21T19:59:49.966Z,22.30
2023-04-21T20:02:19.714Z,21.60
2023-04-21T20:04:49.244Z,28.80
2023-04-21T20:07:17.746Z,17.30
2023-04-21T20:09:46.054Z,28.10
2023-04-21T20:12:14.861Z,19.90
2023-04-21T20:14:43.130Z,19.00
2023-04-21T20:17:11.535Z,20.60
2023-04-21T20:19:40.802Z,24.40
2023-04-21T20:22:09.163Z,21.00
2023-04-21T20:24:37.494Z,20.20
2023-04-21T20:27:08.634Z,25.40
2023-04-21T20:29:37.556Z,29.20
2023-04-21T20:32:06.070Z,28.40
2023-04-21T20:34:34.468Z,25.90
2023-04-21T20:37:04.091Z,20.80
2023-04-21T20:39:32.483Z,19.80
2023-04-21T20:42:11.944Z,18.10
2023-04-21T20:44:42.521Z,16.40
2023-04-21T20:47:11.621Z,16.60
2023-04-21T20:49:40.496Z,16.90
2023-04-21T20:52:09.220Z,20.60
2023-04-21T20:54:38.245Z,21.80
2023-04-21T20:57:07.641Z,15.90
2023-04-21T20:59:36.674Z,18.20
2023-04-21T21:02:05.331Z,18.20
2023-04-21T21:04:33.888Z,17.50
2023-04-21T21:07:02.355Z,18.80
2023-04-21T21:09:31.453Z,19.20
2023-04-21T21:11:59.833Z,16.10
2023-04-21T21:14:28.112Z,18.90
2023-04-21T21:16:56.492Z,21.60
2023-04-21T21:19:24.796Z,22.10
2023-04-21T21:21:53.144Z,17.50
2023-04-21T21:24:21.369Z,25.70
2023-04-21T21:26:49.613Z,23.80
2023-04-21T21:29:18.291Z,21.40
2023-04-21T21:31:46.633Z,21.30
2023-04-21T21:34:14.924Z,17.70
2023-04-21T21:36:43.101Z,21.80
2023-04-21T21:39:11.615Z,16.50
2023-04-21T21:41:39.935Z,19.30
2023-04-21T21:44:08.226Z,26.10
2023-04-21T21:46:36.544Z,17.60
2023-04-21T21:49:04.944Z,20.00
2023-04-21T21:51:33.148Z,20.90
2023-04-21T21:54:01.254Z,22.70
2023-04-21T21:56:29.622Z,17.50
2023-04-21T21:58:57.917Z,22.10
2023-04-21T22:01:26.131Z,23.20
2023-04-21T22:03:54.457Z,19.40
2023-04-21T22:06:24.147Z,22.00
2023-04-21T22:08:53.029Z,16.20
2023-04-21T22:11:21.330Z,17.70
2023-04-21T22:13:50.641Z,14.70
2023-04-21T22:16:20.125Z,21.40
2023-04-21T22:18:48.536Z,22.20
2023-04-21T22:21:16.724Z,12.90
2023-04-21T22:23:45.150Z,16.50
2023-04-21T22:26:13.230Z,17.80
2023-04-21T22:28:41.856Z,18.30
2023-04-21T22:31:10.705Z,20.10
2023-04-21T22:33:39.113Z,19.40
2023-04-21T22:36:09.879Z,15.60
2023-04-21T22:38:39.273Z,19.90
2023-04-21T22:41:08.183Z,18.40
2023-04-21T22:43:36.727Z,15.50
2023-04-21T22:46:05.002Z,17.70
2023-04-21T22:48:33.804Z,15.40
2023-04-21T22:51:03.026Z,19.80
2023-04-21T22:53:31.618Z,22.40
2023-04-21T22:55:59.950Z,23.10
2023-04-21T22:58:28.206Z,30.50
2023-04-21T23:00:56.508Z,40.40
2023-04-21T23:03:24.705Z,50.00
2023-04-21T23:05:53.043Z,27.40
2023-04-21T23:08:21.186Z,25.90
2023-04-21T23:10:49.563Z,25.30
2023-04-21T23:13:17.693Z,19.80
2023-04-21T23:15:45.767Z,24.20
2023-04-21T23:18:13.907Z,18.20
2023-04-21T23:20:41.979Z,23.30
2023-04-21T23:23:10.148Z,21.00
2023-04-21T23:25:38.353Z,16.90
2023-04-21T23:28:06.495Z,21.70
2023-04-21T23:30:34.673Z,17.10
2023-04-21T23:33:03.176Z,13.10
2023-04-21T23:35:31.549Z,20.20
2023-04-21T23:37:59.753Z,15.80
2023-04-21T23:40:28.018Z,18.80
2023-04-21T23:42:56.118Z,35.10
2023-04-21T23:45:24.319Z,27.10
2023-04-21T23:47:52.599Z,35.60
2023-04-21T23:50:20.788Z,40.00
2023-04-21T23:52:49.186Z,87.40
2023-04-21T23:55:18.587Z,60.80
2023-04-21T23:57:47.867Z,62.00
